Time;durP1;ratioP1;P1;durP2;ratioP2;P2;SDS_P1;SDS_P2;PMS_P1;PMS_P2;Temp;Humidity;BMP_temperature;BMP_pressure;BME280_temperature;BME280_humidity;BME280_pressure;Samples;Min_cycle;Max_cycle;Signal;HPM_P1;HPM_P2
2023/03/21 00:01:11;;;;;;;;;;;;;;;;;;5092068;28;19950;-70
2023/03/21 00:03:38;;;;;;;;;;;;;;;;;;5087363;28;19924;-70
2023/03/21 00:06:05;;;;;;;;;;;;;;;;;;5087682;28;19924;-70
2023/03/21 00:08:32;;;;;;;;;;;;;;;;;;5086866;28;20343;-70
2023/03/21 00:10:59;;;;;;;;;;;;;;;;;;5089389;28;19956;-71
2023/03/21 00:13:27;;;;;;;;;;;;;;;;;;5087546;28;19930;-69
2023/03/21 00:15:54;;;;;;;;;;;;;;;;;;5087110;28;19951;-70
2023/03/21 00:18:21;;;;;;;;;;;;;;;;;;5086453;28;19935;-70
2023/03/21 00:20:50;;;;;;;;;;;;;;;;;;5087443;28;19946;-68
2023/03/21 00:23:17;;;;;;;;;;;;;;;;;;5085919;28;19924;-69
2023/03/21 00:25:44;;;;;;;;;;;;;;;;;;5085099;28;19924;-70
2023/03/21 00:28:11;;;;;;;;;;;;;;;;;;5087467;28;19924;-71
2023/03/21 00:30:38;;;;;;;;;;;;;;;;;;5089727;28;20457;-69
2023/03/21 00:33:05;;;;;;;;;;;;;;;;;;5088782;28;20347;-69
2023/03/21 00:35:32;;;;;;;;;;;;;;;;;;5084052;28;20477;-69
2023/03/21 00:37:59;;;;;;;;;;;;;;;;;;5084921;28;20413;-70
2023/03/21 00:40:26;;;;;;;;;;;;;;;;;;5086077;28;19928;-70
2023/03/21 00:42:53;;;;;;;;;;;;;;;;;;5080940;28;19952;-70
2023/03/21 00:45:20;;;;;;;;;;;;;;;;;;5084609;28;19932;-70
2023/03/21 00:47:47;;;;;;;;;;;;;;;;;;5093002;28;19924;-70
2023/03/21 00:50:14;;;;;;;;;;;;;;;;;;5084408;28;19928;-70
2023/03/21 00:52:41;;;;;;;;;;;;;;;;;;5084628;28;19928;-70
2023/03/21 00:55:08;;;;;;;;;;;;;;;;;;5081846;28;19932;-70
2023/03/21 00:57:35;;;;;;;;;;;;;;;;;;5083715;28;19970;-70
2023/03/21 01:00:06;;;;;;;;;;;;;;;;;;5082887;28;20427;-69
2023/03/21 01:02:33;;;;;;;;;;;;;;;;;;5087362;28;19950;-69
2023/03/21 01:05:00;;;;;;;;;;;;;;;;;;5086336;28;20361;-68
2023/03/21 01:07:27;;;;;;;;;;;;;;;;;;5085272;28;20312;-69
2023/03/21 01:09:54;;;;;;;;;;;;;;;;;;5087139;28;20301;-69
2023/03/21 01:12:21;;;;;;;;;;;;;;;;;;5082814;28;19925;-69
2023/03/21 01:14:48;;;;;;;;;;;;;;;;;;5090084;28;19985;-69
2023/03/21 01:17:15;;;;;;;;;;;;;;;;;;5087174;28;19968;-69
2023/03/21 01:19:42;;;;;;;;;;;;;;;;;;5079375;28;20343;-69
2023/03/21 01:22:09;;;;;;;;;;;;;;;;;;5084581;28;20007;-69
2023/03/21 01:24:36;;;;;;;;;;;;;;;;;;5083674;28;20010;-68
2023/03/21 01:27:03;;;;;;;;;;;;;;;;;;5083454;28;20023;-69
2023/03/21 01:29:30;;;;;;;;;;;;;;;;;;5085307;28;19956;-69
2023/03/21 01:31:57;;;;;;;;;;;;;;;;;;5089875;28;19956;-71
2023/03/21 01:34:25;;;;;;;;;;;;;;;;;;5087946;28;19930;-69
2023/03/21 01:36:52;;;;;;;;;;;;;;;;;;5083313;28;19943;-70
2023/03/21 01:39:19;;;;;;;;;;;;;;;;;;5082485;28;19963;-69
2023/03/21 01:41:46;;;;;;;;;;;;;;;;;;5086298;28;20031;-70
2023/03/21 01:44:13;;;;;;;;;;;;;;;;;;5083586;28;20021;-69
2023/03/21 01:46:39;;;;;;;;;;;;;;;;;;5084203;28;19925;-69
2023/03/21 01:49:06;;;;;;;;;;;;;;;;;;5088208;28;20287;-69
2023/03/21 01:51:33;;;;;;;;;;;;;;;;;;5087361;28;20343;-69
2023/03/21 01:54:00;;;;;;;;;;;;;;;;;;5082204;28;20530;-69
2023/03/21 01:56:27;;;;;;;;;;;;;;;;;;5086399;28;19924;-70
2023/03/21 01:58:55;;;;;;;;;;;;;;;;;;5082889;28;20824;-69
2023/03/21 02:01:22;;;;;;;;;;;;;;;;;;5085763;28;19932;-70
2023/03/21 02:03:52;;;;;;;;;;;;;;;;;;5084705;28;20383;-70
2023/03/21 02:06:19;;;;;;;;;;;;;;;;;;5090013;28;19924;-69
2023/03/21 02:08:47;;;;;;;;;;;;;;;;;;5083118;28;19928;-69
2023/03/21 02:11:14;;;;;;;;;;;;;;;;;;5084314;28;19924;-69
2023/03/21 02:13:41;;;;;;;;;;;;;;;;;;5082468;28;19928;-69
2023/03/21 02:16:08;;;;;;;;;;;;;;;;;;5088739;28;19940;-69
2023/03/21 02:18:35;;;;;;;;;;;;;;;;;;5086419;28;20372;-70
2023/03/21 02:21:02;;;;;;;;;;;;;;;;;;5085725;28;19930;-70
2023/03/21 02:23:29;;;;;;;;;;;;;;;;;;5087124;28;19931;-69
2023/03/21 02:25:56;;;;;;;;;;;;;;;;;;5090350;28;20398;-70
2023/03/21 02:28:23;;;;;;;;;;;;;;;;;;5078326;28;19924;-69
2023/03/21 02:30:50;;;;;;;;;;;;;;;;;;5087437;28;20011;-69
2023/03/21 02:33:17;;;;;;;;;;;;;;;;;;5082906;28;19935;-70
2023/03/21 02:35:45;;;;;;;;;;;;;;;;;;5078788;28;20023;-69
2023/03/21 02:38:11;;;;;;;;;;;;;;;;;;5081689;28;20027;-69
2023/03/21 02:40:38;;;;;;;;;;;;;;;;;;5088504;28;19924;-69
2023/03/21 02:43:05;;;;;;;;;;;;;;;;;;5074481;28;19924;-69
2023/03/21 02:45:32;;;;;;;;;;;;;;;;;;5083233;28;20312;-69
2023/03/21 02:47:59;;;;;;;;;;;;;;;;;;5086829;28;19932;-69
2023/03/21 02:50:26;;;;;;;;;;;;;;;;;;5085509;28;19928;-70
2023/03/21 02:52:53;;;;;;;;;;;;;;;;;;5085109;28;19928;-69
2023/03/21 02:55:20;;;;;;;;;;;;;;;;;;5084130;28;19932;-70
2023/03/21 02:57:47;;;;;;;;;;;;;;;;;;5082012;28;20432;-70
2023/03/21 03:00:15;;;;;;;;;;;;;;;;;;5084214;28;20310;-70
2023/03/21 03:02:42;;;;;;;;;;;;;;;;;;5086299;28;20011;-69
2023/03/21 03:05:09;;;;;;;;;;;;;;;;;;5084728;28;20450;-70
2023/03/21 03:07:36;;;;;;;;;;;;;;;;;;5082306;28;19931;-69
2023/03/21 03:10:03;;;;;;;;;;;;;;;;;;5082071;28;19931;-69
2023/03/21 03:12:30;;;;;;;;;;;;;;;;;;5083147;28;19930;-69
2023/03/21 03:14:57;;;;;;;;;;;;;;;;;;5082939;28;19924;-69
2023/03/21 03:17:24;;;;;;;;;;;;;;;;;;5081539;28;19927;-69
2023/03/21 03:19:51;;;;;;;;;;;;;;;;;;5088959;28;19959;-69
2023/03/21 03:22:18;;;;;;;;;;;;;;;;;;5086132;28;20015;-69
2023/03/21 03:24:46;;;;;;;;;;;;;;;;;;5082765;28;19974;-69
2023/03/21 03:27:14;;;;;;;;;;;;;;;;;;5083706;28;19932;-69
2023/03/21 03:29:41;;;;;;;;;;;;;;;;;;5080772;28;19932;-69
2023/03/21 03:32:08;;;;;;;;;;;;;;;;;;5080062;28;19924;-70
2023/03/21 03:34:38;;;;;;;;;;;;;;;;;;5080289;28;20035;-68
2023/03/21 03:37:05;;;;;;;;;;;;;;;;;;5083688;28;20258;-69
2023/03/21 03:39:32;;;;;;;;;;;;;;;;;;5082520;28;20590;-69
2023/03/21 03:41:59;;;;;;;;;;;;;;;;;;5081134;28;20295;-69
2023/03/21 03:44:27;;;;;;;;;;;;;;;;;;5081110;28;19924;-69
2023/03/21 03:46:54;;;;;;;;;;;;;;;;;;5082262;28;19939;-69
2023/03/21 03:49:21;;;;;;;;;;;;;;;;;;5082267;28;19938;-68
2023/03/21 03:51:48;;;;;;;;;;;;;;;;;;5084304;28;19924;-69
2023/03/21 03:54:16;;;;;;;;;;;;;;;;;;5080524;28;20030;-69
2023/03/21 03:56:43;;;;;;;;;;;;;;;;;;5084446;28;20011;-69
2023/03/21 03:59:10;;;;;;;;;;;;;;;;;;5086812;28;19924;-68
2023/03/21 04:01:37;;;;;;;;;;;;;;;;;;5083278;28;20024;-69
2023/03/21 04:04:04;;;;;;;;;;;;;;;;;;5085413;28;19956;-69
2023/03/21 04:06:32;;;;;;;;;;;;;;;;;;5080428;28;19965;-69
2023/03/21 04:08:59;;;;;;;;;;;;;;;;;;5082528;28;20413;-69
2023/03/21 04:11:26;;;;;;;;;;;;;;;;;;5083049;28;19932;-69
2023/03/21 04:13:53;;;;;;;;;;;;;;;;;;5080451;28;19963;-70
2023/03/21 04:16:22;;;;;;;;;;;;;;;;;;5084082;28;19930;-70
2023/03/21 04:18:49;;;;;;;;;;;;;;;;;;5081103;28;19970;-70
2023/03/21 04:21:16;;;;;;;;;;;;;;;;;;5079241;28;20011;-69
2023/03/21 04:23:43;;;;;;;;;;;;;;;;;;5082723;28;20018;-69
2023/03/21 04:26:10;;;;;;;;;;;;;;;;;;5081737;28;20346;-69
2023/03/21 04:28:38;;;;;;;;;;;;;;;;;;5080692;28;20321;-69
2023/03/21 04:31:05;;;;;;;;;;;;;;;;;;5080176;28;20019;-70
2023/03/21 04:33:37;;;;;;;;;;;;;;;;;;5089352;28;19987;-69
2023/03/21 04:36:05;;;;;;;;;;;;;;;;;;5085495;28;21538;-70
2023/03/21 04:38:32;;;;;;;;;;;;;;;;;;5085568;28;20426;-70
2023/03/21 04:40:59;;;;;;;;;;;;;;;;;;5092015;28;19924;-70
2023/03/21 04:43:27;;;;;;;;;;;;;;;;;;5088029;28;19930;-69
2023/03/21 04:45:54;;;;;;;;;;;;;;;;;;5084551;28;20850;-69
2023/03/21 04:48:23;;;;;;;;;;;;;;;;;;5084169;28;19924;-69
2023/03/21 04:50:50;;;;;;;;;;;;;;;;;;5083979;28;21818;-70
2023/03/21 04:53:17;;;;;;;;;;;;;;;;;;5085203;28;19939;-70
2023/03/21 04:55:44;;;;;;;;;;;;;;;;;;5091554;28;19930;-70
2023/03/21 04:58:11;;;;;;;;;;;;;;;;;;5083220;28;19931;-70
2023/03/21 05:00:39;;;;;;;;;;;;;;;;;;5083240;28;19948;-70
2023/03/21 05:03:07;;;;;;;;;;;;;;;;;;5083458;28;20007;-70
2023/03/21 05:05:34;;;;;;;;;;;;;;;;;;5081888;28;19925;-70
2023/03/21 05:08:01;;;;;;;;;;;;;;;;;;5082519;28;20023;-70
2023/03/21 05:10:28;;;;;;;;;;;;;;;;;;5085141;28;20380;-68
2023/03/21 05:12:55;;;;;;;;;;;;;;;;;;5083654;28;20331;-69
2023/03/21 05:15:22;;;;;;;;;;;;;;;;;;5084303;28;19928;-69
2023/03/21 05:17:49;;;;;;;;;;;;;;;;;;5082322;28;19951;-69
2023/03/21 05:20:16;;;;;;;;;;;;;;;;;;5082847;28;21652;-69
2023/03/21 05:22:44;;;;;;;;;;;;;;;;;;5084318;28;19924;-69
2023/03/21 05:25:11;;;;;;;;;;;;;;;;;;5089582;28;20290;-69
2023/03/21 05:27:44;;;;;;;;;;;;;;;;;;5086569;28;19932;-69
2023/03/21 05:30:11;;;;;;;;;;;;;;;;;;5084743;28;19924;-69
2023/03/21 05:32:38;;;;;;;;;;;;;;;;;;5084365;28;19924;-69
2023/03/21 05:35:05;;;;;;;;;;;;;;;;;;5085519;28;20007;-68
2023/03/21 05:37:32;;;;;;;;;;;;;;;;;;5090476;28;19925;-69
2023/03/21 05:39:59;;;;;;;;;;;;;;;;;;5090421;28;19931;-69
2023/03/21 05:42:26;;;;;;;;;;;;;;;;;;5082379;28;19928;-68
2023/03/21 05:44:53;;;;;;;;;;;;;;;;;;5084520;28;20018;-68
2023/03/21 05:47:20;;;;;;;;;;;;;;;;;;5075631;28;20383;-68
2023/03/21 05:49:47;;;;;;;;;;;;;;;;;;5075670;28;20391;-68
2023/03/21 05:52:14;;;;;;;;;;;;;;;;;;5085806;28;19967;-68
2023/03/21 05:54:41;;;;;;;;;;;;;;;;;;5089832;28;19924;-68
2023/03/21 05:57:08;;;;;;;;;;;;;;;;;;5090439;28;20286;-67
2023/03/21 05:59:35;;;;;;;;;;;;;;;;;;5077620;28;19977;-68
2023/03/21 06:02:02;;;;;;;;;;;;;;;;;;5080406;28;19924;-69
2023/03/21 06:04:29;;;;;;;;;;;;;;;;;;5077652;28;19924;-68
2023/03/21 06:06:56;;;;;;;;;;;;;;;;;;5078820;28;20415;-68
2023/03/21 06:09:23;;;;;;;;;;;;;;;;;;5081280;28;19932;-68
2023/03/21 06:11:50;;;;;;;;;;;;;;;;;;5086813;28;19924;-67
2023/03/21 06:14:17;;;;;;;;;;;;;;;;;;5087214;28;19928;-68
2023/03/21 06:16:44;;;;;;;;;;;;;;;;;;5081794;28;20379;-67
2023/03/21 06:19:11;;;;;;;;;;;;;;;;;;5088354;28;19924;-68
2023/03/21 06:21:38;;;;;;;;;;;;;;;;;;5086312;28;19931;-68
2023/03/21 06:24:05;;;;;;;;;;;;;;;;;;5088606;28;19931;-68
2023/03/21 06:26:32;;;;;;;;;;;;;;;;;;5086840;28;20280;-67
2023/03/21 06:28:59;;;;;;;;;;;;;;;;;;5082205;28;20306;-68
2023/03/21 06:31:26;;;;;;;;;;;;;;;;;;5089780;28;20382;-68
2023/03/21 06:33:53;;;;;;;;;;;;;;;;;;5083193;28;20459;-68
2023/03/21 06:36:20;;;;;;;;;;;;;;;;;;5088835;28;19959;-68
2023/03/21 06:38:47;;;;;;;;;;;;;;;;;;5088481;28;20055;-68
2023/03/21 06:41:14;;;;;;;;;;;;;;;;;;5080170;28;19928;-69
2023/03/21 06:43:41;;;;;;;;;;;;;;;;;;5088935;28;20022;-68
2023/03/21 06:46:08;;;;;;;;;;;;;;;;;;5087396;28;19930;-69
2023/03/21 06:48:36;;;;;;;;;;;;;;;;;;5086100;28;19924;-68
2023/03/21 06:51:03;;;;;;;;;;;;;;;;;;5089501;28;20306;-68
2023/03/21 06:53:31;;;;;;;;;;;;;;;;;;5079172;28;19973;-69
2023/03/21 06:55:58;;;;;;;;;;;;;;;;;;5079969;28;19925;-68
2023/03/21 06:58:25;;;;;;;;;;;;;;;;;;5076065;28;19951;-69
2023/03/21 07:00:52;;;;;;;;;;;;;;;;;;5087945;28;19924;-69
2023/03/21 07:03:19;;;;;;;;;;;;;;;;;;5076001;28;19928;-68
2023/03/21 07:05:46;;;;;;;;;;;;;;;;;;5088697;28;20023;-68
2023/03/21 07:08:13;;;;;;;;;;;;;;;;;;5081132;28;19980;-69
2023/03/21 07:10:40;;;;;;;;;;;;;;;;;;5077927;28;19924;-69
2023/03/21 07:13:07;;;;;;;;;;;;;;;;;;5083004;28;19930;-69
2023/03/21 07:15:36;;;;;;;;;;;;;;;;;;5083870;28;19940;-69
2023/03/21 07:18:03;;;;;;;;;;;;;;;;;;5070038;28;20359;-69
2023/03/21 07:20:30;;;;;;;;;;;;;;;;;;5081077;28;19931;-69
2023/03/21 07:22:57;;;;;;;;;;;;;;;;;;5079052;28;20401;-68
2023/03/21 07:25:24;;;;;;;;;;;;;;;;;;5086258;28;19977;-68
2023/03/21 07:27:51;;;;;;;;;;;;;;;;;;5078108;28;19928;-67
2023/03/21 07:30:18;;;;;;;;;;;;;;;;;;5084568;28;20023;-67
2023/03/21 07:32:46;;;;;;;;;;;;;;;;;;5083122;28;19932;-67
2023/03/21 07:35:13;;;;;;;;;;;;;;;;;;5084155;28;20000;-67
2023/03/21 07:37:40;;;;;;;;;;;;;;;;;;5086189;28;19928;-67
2023/03/21 07:40:09;;;;;;;;;;;;;;;;;;5086172;28;19934;-67
2023/03/21 07:42:36;;;;;;;;;;;;;;;;;;5079229;28;19978;-68
2023/03/21 07:45:03;;;;;;;;;;;;;;;;;;5086745;28;19925;-69
2023/03/21 07:47:30;;;;;;;;;;;;;;;;;;5078831;28;19977;-67
2023/03/21 07:49:57;;;;;;;;;;;;;;;;;;5083161;28;19928;-67
2023/03/21 07:52:24;;;;;;;;;;;;;;;;;;5082417;28;19924;-67
2023/03/21 07:54:51;;;;;;;;;;;;;;;;;;5083040;28;21119;-67
2023/03/21 07:57:18;;;;;;;;;;;;;;;;;;5076526;28;20372;-68
2023/03/21 07:59:45;;;;;;;;;;;;;;;;;;5072243;28;20376;-67
2023/03/21 08:02:12;;;;;;;;;;;;;;;;;;5077735;28;19947;-68
2023/03/21 08:04:39;;;;;;;;;;;;;;;;;;5081962;28;19924;-68
2023/03/21 08:07:06;;;;;;;;;;;;;;;;;;5078383;28;19932;-68
2023/03/21 08:09:33;;;;;;;;;;;;;;;;;;5079377;28;20255;-68
2023/03/21 08:12:00;;;;;;;;;;;;;;;;;;5088979;28;19936;-68
2023/03/21 08:14:27;;;;;;;;;;;;;;;;;;5089552;28;19931;-69
2023/03/21 08:16:54;;;;;;;;;;;;;;;;;;5089505;28;19973;-67
2023/03/21 08:19:21;;;;;;;;;;;;;;;;;;5087715;28;19930;-67
2023/03/21 08:21:49;;;;;;;;;;;;;;;;;;5089744;28;20379;-67
2023/03/21 08:24:16;;;;;;;;;;;;;;;;;;5075661;28;19924;-67
2023/03/21 08:26:44;;;;;;;;;;;;;;;;;;5090422;28;20298;-68
2023/03/21 08:29:11;;;;;;;;;;;;;;;;;;5084471;28;19925;-70
2023/03/21 08:31:38;;;;;;;;;;;;;;;;;;5090626;28;19924;-68
2023/03/21 08:34:06;;;;;;;;;;;;;;;;;;5083786;28;19930;-68
2023/03/21 08:36:33;;;;;;;;;;;;;;;;;;5075777;28;19924;-68
2023/03/21 08:39:04;;;;;;;;;;;;;;;;;;5080055;28;20121;-68
2023/03/21 08:41:31;;;;;;;;;;;;;;;;;;5087047;28;19924;-68
2023/03/21 08:43:58;;;;;;;;;;;;;;;;;;5081458;28;20299;-68
2023/03/21 08:46:25;;;;;;;;;;;;;;;;;;5079245;28;20383;-67
2023/03/21 08:48:52;;;;;;;;;;;;;;;;;;5082575;28;19936;-67
2023/03/21 08:51:19;;;;;;;;;;;;;;;;;;5081508;28;19931;-68
2023/03/21 08:53:46;;;;;;;;;;;;;;;;;;5078699;28;19930;-68
2023/03/21 08:56:13;;;;;;;;;;;;;;;;;;5086436;28;19931;-68
2023/03/21 08:58:40;;;;;;;;;;;;;;;;;;5086574;28;19932;-68
2023/03/21 09:01:14;;;;;;;;;;;;;;;;;;5086065;28;19924;-68
2023/03/21 09:03:41;;;;;;;;;;;;;;;;;;5086890;28;19932;-68
2023/03/21 09:06:09;;;;;;;;;;;;;;;;;;5086231;28;20647;-70
2023/03/21 09:08:36;;;;;;;;;;;;;;;;;;5083381;28;19939;-66
2023/03/21 09:11:03;;;;;;;;;;;;;;;;;;5083087;28;19954;-70
2023/03/21 09:13:30;;;;;;;;;;;;;;;;;;5088900;28;20031;-67
2023/03/21 09:16:00;;;;;;;;;;;;;;;;;;5087368;28;19939;-68
2023/03/21 09:18:37;;;;;;;;;;;;;;;;;;5081966;28;20015;-68
2023/03/21 09:21:10;;;;;;;;;;;;;;;;;;5091439;28;19924;-69
2023/03/21 09:23:38;;;;;;;;;;;;;;;;;;5089415;28;20275;-68
2023/03/21 09:26:05;;;;;;;;;;;;;;;;;;5090272;28;19933;-69
2023/03/21 09:28:33;;;;;;;;;;;;;;;;;;5089855;28;19924;-70
2023/03/21 09:31:01;;;;;;;;;;;;;;;;;;5085013;28;20027;-70
2023/03/21 09:33:28;;;;;;;;;;;;;;;;;;5086950;28;19931;-70
2023/03/21 09:35:56;;;;;;;;;;;;;;;;;;5089440;28;20303;-70
2023/03/21 09:38:29;;;;;;;;;;;;;;;;;;5086232;28;19934;-70
2023/03/21 09:40:56;;;;;;;;;;;;;;;;;;5085878;28;20343;-70
2023/03/21 09:43:23;;;;;;;;;;;;;;;;;;5089006;28;19924;-68
2023/03/21 09:45:50;;;;;;;;;;;;;;;;;;5083212;28;19924;-68
2023/03/21 09:48:21;;;;;;;;;;;;;;;;;;5086591;28;19931;-69
2023/03/21 09:50:48;;;;;;;;;;;;;;;;;;5090922;28;19953;-69
2023/03/21 09:53:15;;;;;;;;;;;;;;;;;;5082320;28;19928;-69
2023/03/21 09:55:43;;;;;;;;;;;;;;;;;;5085116;28;20007;-69
2023/03/21 09:58:10;;;;;;;;;;;;;;;;;;5080007;28;19978;-69
2023/03/21 10:00:38;;;;;;;;;;;;;;;;;;5086490;28;20003;-69
2023/03/21 10:03:08;;;;;;;;;;;;;;;;;;5089100;28;19928;-69
2023/03/21 10:05:38;;;;;;;;;;;;;;;;;;5079845;28;20477;-69
2023/03/21 10:08:06;;;;;;;;;;;;;;;;;;5083483;28;20371;-71
2023/03/21 10:10:33;;;;;;;;;;;;;;;;;;5082798;28;19929;-72
2023/03/21 10:13:00;;;;;;;;;;;;;;;;;;5086677;28;19924;-71
2023/03/21 10:15:27;;;;;;;;;;;;;;;;;;5079998;28;19967;-69
2023/03/21 10:17:54;;;;;;;;;;;;;;;;;;5078558;28;19924;-69
2023/03/21 10:20:21;;;;;;;;;;;;;;;;;;5079116;28;19931;-68
2023/03/21 10:22:48;;;;;;;;;;;;;;;;;;5074958;28;19924;-69
2023/03/21 10:25:15;;;;;;;;;;;;;;;;;;5081378;28;20023;-68
2023/03/21 10:27:41;;;;;;;;;;;;;;;;;;5076709;28;19924;-70
2023/03/21 10:30:09;;;;;;;;;;;;;;;;;;5090321;28;20433;-69
2023/03/21 10:32:37;;;;;;;;;;;;;;;;;;5083882;28;19924;-69
2023/03/21 10:35:04;;;;;;;;;;;;;;;;;;5091746;28;19928;-70
2023/03/21 10:37:32;;;;;;;;;;;;;;;;;;5086490;28;19924;-68
2023/03/21 10:39:59;;;;;;;;;;;;;;;;;;5083645;28;19925;-69
2023/03/21 10:42:26;;;;;;;;;;;;;;;;;;5079689;28;19928;-69
2023/03/21 10:44:52;;;;;;;;;;;;;;;;;;5079034;28;19924;-69
2023/03/21 10:47:19;;;;;;;;;;;;;;;;;;5086060;28;19935;-68
2023/03/21 10:49:46;;;;;;;;;;;;;;;;;;5081900;28;19924;-67
2023/03/21 10:52:13;;;;;;;;;;;;;;;;;;5089483;28;19938;-66
2023/03/21 10:54:41;;;;;;;;;;;;;;;;;;5084637;28;19963;-67
2023/03/21 10:57:08;;;;;;;;;;;;;;;;;;5076870;28;19951;-67
2023/03/21 10:59:35;;;;;;;;;;;;;;;;;;5083468;28;19928;-66
2023/03/21 11:02:02;;;;;;;;;;;;;;;;;;5089162;28;19963;-66
2023/03/21 11:04:29;;;;;;;;;;;;;;;;;;5089870;28;19977;-67
2023/03/21 11:06:56;;;;;;;;;;;;;;;;;;5083815;28;19924;-67
2023/03/21 11:09:23;;;;;;;;;;;;;;;;;;5079999;28;19924;-68
2023/03/21 11:11:51;;;;;;;;;;;;;;;;;;5092405;28;19924;-67
2023/03/21 11:14:18;;;;;;;;;;;;;;;;;;5077723;28;20015;-67
2023/03/21 11:16:45;;;;;;;;;;;;;;;;;;5076607;28;19975;-68
2023/03/21 11:19:12;;;;;;;;;;;;;;;;;;5083102;28;19924;-66
2023/03/21 11:21:39;;;;;;;;;;;;;;;;;;5083215;28;19924;-69
2023/03/21 11:24:06;;;;;;;;;;;;;;;;;;5081432;28;20401;-68
2023/03/21 11:26:34;;;;;;;;;;;;;;;;;;5078173;28;20569;-66
2023/03/21 11:29:02;;;;;;;;;;;;;;;;;;5084121;28;19925;-69
2023/03/21 11:31:29;;;;;;;;;;;;;;;;;;5074692;28;19935;-68
2023/03/21 11:33:58;;;;;;;;;;;;;;;;;;5076684;28;19931;-68
2023/03/21 11:36:26;;;;;;;;;;;;;;;;;;5070395;28;19928;-68
2023/03/21 11:38:52;;;;;;;;;;;;;;;;;;5076688;28;19932;-68
2023/03/21 11:41:20;;;;;;;;;;;;;;;;;;5084870;28;20007;-69
2023/03/21 11:43:47;;;;;;;;;;;;;;;;;;5085312;28;20321;-68
2023/03/21 11:46:14;;;;;;;;;;;;;;;;;;5075979;28;19976;-68
2023/03/21 11:48:41;;;;;;;;;;;;;;;;;;5075828;28;20074;-68
2023/03/21 11:51:08;;;;;;;;;;;;;;;;;;5074783;28;19947;-68
2023/03/21 11:53:37;;;;;;;;;;;;;;;;;;5075300;28;19951;-67
2023/03/21 11:56:04;;;;;;;;;;;;;;;;;;5072549;28;19947;-69
2023/03/21 11:58:31;;;;;;;;;;;;;;;;;;5080399;28;20009;-69
2023/03/21 12:00:58;;;;;;;;;;;;;;;;;;5074625;28;19924;-70
2023/03/21 12:03:25;;;;;;;;;;;;;;;;;;5075924;28;19932;-68
2023/03/21 12:05:52;;;;;;;;;;;;;;;;;;5075283;28;19969;-69
2023/03/21 12:08:19;;;;;;;;;;;;;;;;;;5083589;28;20408;-73
2023/03/21 12:10:46;;;;;;;;;;;;;;;;;;5070090;28;19932;-71
2023/03/21 12:13:13;;;;;;;;;;;;;;;;;;5073944;28;19985;-74
2023/03/21 12:15:40;;;;;;;;;;;;;;;;;;5082472;28;20015;-74
2023/03/21 12:18:07;;;;;;;;;;;;;;;;;;5081221;28;20011;-72
2023/03/21 12:20:34;;;;;;;;;;;;;;;;;;5087514;28;20362;-72
2023/03/21 12:23:01;;;;;;;;;;;;;;;;;;5079056;28;20499;-72
2023/03/21 12:25:28;;;;;;;;;;;;;;;;;;5082946;28;19939;-72
2023/03/21 12:27:55;;;;;;;;;;;;;;;;;;5087572;28;19931;-73
2023/03/21 12:30:23;;;;;;;;;;;;;;;;;;5080400;28;19924;-73
2023/03/21 12:32:53;;;;;;;;;;;;;;;;;;5076223;28;20379;-74
2023/03/21 12:35:20;;;;;;;;;;;;;;;;;;5088224;28;20362;-74
2023/03/21 12:37:47;;;;;;;;;;;;;;;;;;5083626;28;20375;-74
2023/03/21 12:40:14;;;;;;;;;;;;;;;;;;5083645;28;19924;-74
2023/03/21 12:42:40;;;;;;;;;;;;;;;;;;5076851;28;20467;-74
2023/03/21 12:45:07;;;;;;;;;;;;;;;;;;5078225;28;20343;-74
2023/03/21 12:47:34;;;;;;;;;;;;;;;;;;5077270;28;20287;-74
2023/03/21 12:50:02;;;;;;;;;;;;;;;;;;5088467;28;19931;-74
2023/03/21 12:52:29;;;;;;;;;;;;;;;;;;5079010;28;19943;-73
2023/03/21 12:54:56;;;;;;;;;;;;;;;;;;5087673;28;19930;-73
2023/03/21 12:57:23;;;;;;;;;;;;;;;;;;5085926;28;19928;-73
2023/03/21 12:59:50;;;;;;;;;;;;;;;;;;5087180;28;19924;-72
2023/03/21 13:02:18;;;;;;;;;;;;;;;;;;5084825;28;19932;-72
2023/03/21 13:04:45;;;;;;;;;;;;;;;;;;5089001;28;19929;-75
2023/03/21 13:07:12;;;;;;;;;;;;;;;;;;5085304;28;20634;-74
2023/03/21 13:09:39;;;;;;;;;;;;;;;;;;5082812;28;19924;-74
2023/03/21 13:12:06;;;;;;;;;;;;;;;;;;5083479;28;19925;-75
2023/03/21 13:14:33;;;;;;;;;;;;;;;;;;5086464;28;19924;-75
2023/03/21 13:17:00;;;;;;;;;;;;;;;;;;5090219;28;19928;-73
2023/03/21 13:19:27;;;;;;;;;;;;;;;;;;5086405;28;19924;-75
2023/03/21 13:21:54;;;;;;;;;;;;;;;;;;5086188;28;20019;-74
2023/03/21 13:24:21;;;;;;;;;;;;;;;;;;5086232;28;19924;-80
2023/03/21 13:26:49;;;;;;;;;;;;;;;;;;5076987;28;20023;-75
2023/03/21 13:29:16;;;;;;;;;;;;;;;;;;5079424;28;19931;-74
2023/03/21 13:31:43;;;;;;;;;;;;;;;;;;5077255;28;20011;-75
2023/03/21 13:34:09;;;;;;;;;;;;;;;;;;5084092;28;19954;-74
2023/03/21 13:36:38;;;;;;;;;;;;;;;;;;5087541;28;19928;-75
2023/03/21 13:39:05;;;;;;;;;;;;;;;;;;5086813;28;19932;-74
2023/03/21 13:41:32;;;;;;;;;;;;;;;;;;5084653;28;20338;-73
2023/03/21 13:43:59;;;;;;;;;;;;;;;;;;5081794;28;19925;-73
2023/03/21 13:46:26;;;;;;;;;;;;;;;;;;5089623;28;19924;-70
2023/03/21 13:48:53;;;;;;;;;;;;;;;;;;5086957;28;19975;-73
2023/03/21 13:51:20;;;;;;;;;;;;;;;;;;5078587;28;19924;-73
2023/03/21 13:53:47;;;;;;;;;;;;;;;;;;5083914;28;19934;-72
2023/03/21 13:56:14;;;;;;;;;;;;;;;;;;5091046;28;19924;-73
2023/03/21 13:58:41;;;;;;;;;;;;;;;;;;5085996;28;19924;-74
2023/03/21 14:01:08;;;;;;;;;;;;;;;;;;5078151;28;19924;-72
2023/03/21 14:03:35;;;;;;;;;;;;;;;;;;5083688;28;19924;-74
2023/03/21 14:06:02;;;;;;;;;;;;;;;;;;5089058;28;20046;-74
2023/03/21 14:08:31;;;;;;;;;;;;;;;;;;5083178;28;19924;-73
2023/03/21 14:10:58;;;;;;;;;;;;;;;;;;5077047;28;19924;-74
2023/03/21 14:13:25;;;;;;;;;;;;;;;;;;5086300;28;19928;-73
2023/03/21 14:15:52;;;;;;;;;;;;;;;;;;5072968;28;19970;-72
2023/03/21 14:18:19;;;;;;;;;;;;;;;;;;5083761;28;19924;-74
2023/03/21 14:20:48;;;;;;;;;;;;;;;;;;5087992;28;20275;-73
2023/03/21 14:23:16;;;;;;;;;;;;;;;;;;5084040;28;19924;-72
2023/03/21 14:25:45;;;;;;;;;;;;;;;;;;5088672;28;20444;-73
2023/03/21 14:28:12;;;;;;;;;;;;;;;;;;5077521;28;19924;-73
2023/03/21 14:30:39;;;;;;;;;;;;;;;;;;5083335;28;19932;-74
2023/03/21 14:33:06;;;;;;;;;;;;;;;;;;5079351;28;19925;-74
2023/03/21 14:35:33;;;;;;;;;;;;;;;;;;5078666;28;19924;-73
2023/03/21 14:38:00;;;;;;;;;;;;;;;;;;5084175;28;20016;-74
2023/03/21 14:40:27;;;;;;;;;;;;;;;;;;5084313;28;19939;-73
2023/03/21 14:42:54;;;;;;;;;;;;;;;;;;5077912;28;19931;-74
2023/03/21 14:45:21;;;;;;;;;;;;;;;;;;5086981;28;19972;-74
2023/03/21 14:47:48;;;;;;;;;;;;;;;;;;5078670;28;20027;-74
2023/03/21 14:50:15;;;;;;;;;;;;;;;;;;5075925;28;20019;-74
2023/03/21 14:52:43;;;;;;;;;;;;;;;;;;5083319;28;19952;-73
2023/03/21 14:55:10;;;;;;;;;;;;;;;;;;5085913;28;20463;-74
2023/03/21 14:57:37;;;;;;;;;;;;;;;;;;5089386;28;19969;-72
2023/03/21 15:00:11;;;;;;;;;;;;;;;;;;5085802;28;20464;-73
2023/03/21 15:02:39;;;;;;;;;;;;;;;;;;5086460;28;19928;-75
2023/03/21 15:05:06;;;;;;;;;;;;;;;;;;5087924;28;19973;-73
2023/03/21 15:07:33;;;;;;;;;;;;;;;;;;5086500;28;19930;-73
2023/03/21 15:10:02;;;;;;;;;;;;;;;;;;5084005;28;19924;-73
2023/03/21 15:12:29;;;;;;;;;;;;;;;;;;5078290;28;19924;-71
2023/03/21 15:14:56;;;;;;;;;;;;;;;;;;5077638;28;19932;-72
2023/03/21 15:17:23;;;;;;;;;;;;;;;;;;5077544;28;19924;-71
2023/03/21 15:19:50;;;;;;;;;;;;;;;;;;5085876;28;20282;-73
2023/03/21 15:22:17;;;;;;;;;;;;;;;;;;5075984;28;20298;-73
2023/03/21 15:24:44;;;;;;;;;;;;;;;;;;5081533;28;19985;-72
2023/03/21 15:27:11;;;;;;;;;;;;;;;;;;5072206;28;19959;-72
2023/03/21 15:29:37;;;;;;;;;;;;;;;;;;5083086;28;19924;-71
2023/03/21 15:32:04;;;;;;;;;;;;;;;;;;5085013;28;19924;-74
2023/03/21 15:34:32;;;;;;;;;;;;;;;;;;5088753;28;19967;-74
2023/03/21 15:36:59;;;;;;;;;;;;;;;;;;5076963;28;19964;-73
2023/03/21 15:39:26;;;;;;;;;;;;;;;;;;5085038;28;20448;-74
2023/03/21 15:41:53;;;;;;;;;;;;;;;;;;5072418;28;19931;-73
2023/03/21 15:44:20;;;;;;;;;;;;;;;;;;5083279;28;19930;-73
2023/03/21 15:46:47;;;;;;;;;;;;;;;;;;5084162;28;19978;-72
2023/03/21 15:49:14;;;;;;;;;;;;;;;;;;5078341;28;20019;-72
2023/03/21 15:51:41;;;;;;;;;;;;;;;;;;5073636;28;19924;-73
2023/03/21 15:54:08;;;;;;;;;;;;;;;;;;5083118;28;19935;-72
2023/03/21 15:56:35;;;;;;;;;;;;;;;;;;5080302;28;20044;-74
2023/03/21 15:59:02;;;;;;;;;;;;;;;;;;5076537;28;20000;-73
2023/03/21 16:01:29;;;;;;;;;;;;;;;;;;5077626;28;20007;-73
2023/03/21 16:03:56;;;;;;;;;;;;;;;;;;5081219;28;19947;-73
2023/03/21 16:06:24;;;;;;;;;;;;;;;;;;5082128;28;19924;-73
2023/03/21 16:08:51;;;;;;;;;;;;;;;;;;5079971;28;19930;-73
2023/03/21 16:11:18;;;;;;;;;;;;;;;;;;5085398;28;20057;-72
2023/03/21 16:13:45;;;;;;;;;;;;;;;;;;5077151;28;19924;-74
2023/03/21 16:16:12;;;;;;;;;;;;;;;;;;5073911;28;19925;-73
2023/03/21 16:18:39;;;;;;;;;;;;;;;;;;5081682;28;19932;-73
2023/03/21 16:21:06;;;;;;;;;;;;;;;;;;5080318;28;20367;-74
2023/03/21 16:23:33;;;;;;;;;;;;;;;;;;5080584;28;19993;-74
2023/03/21 16:26:02;;;;;;;;;;;;;;;;;;5083842;28;19925;-73
2023/03/21 16:28:29;;;;;;;;;;;;;;;;;;5082090;28;19935;-74
2023/03/21 16:30:56;;;;;;;;;;;;;;;;;;5090486;28;20412;-72
2023/03/21 16:33:24;;;;;;;;;;;;;;;;;;5085259;28;20264;-73
2023/03/21 16:35:52;;;;;;;;;;;;;;;;;;5089909;28;19967;-75
2023/03/21 16:38:19;;;;;;;;;;;;;;;;;;5085082;28;20417;-75
2023/03/21 16:40:46;;;;;;;;;;;;;;;;;;5081773;28;19971;-73
2023/03/21 16:43:13;;;;;;;;;;;;;;;;;;5087463;28;20015;-74
2023/03/21 16:45:41;;;;;;;;;;;;;;;;;;5075350;28;20016;-74